createdAt,value
2022-08-25T00:00:56.244Z,6.40
2022-08-25T00:03:44.863Z,4.13
2022-08-25T00:06:32.593Z,3.45
2022-08-25T00:09:22.225Z,2.83
2022-08-25T00:12:09.525Z,4.80
2022-08-25T00:14:56.482Z,3.97
2022-08-25T00:17:43.587Z,3.47
2022-08-25T00:20:30.893Z,3.60
2022-08-25T00:23:19.105Z,4.15
2022-08-25T00:26:07.341Z,2.70
2022-08-25T00:29:01.276Z,3.70
2022-08-25T00:31:49.174Z,2.38
2022-08-25T00:34:38.296Z,4.90
2022-08-25T00:40:12.807Z,3.35
2022-08-25T00:43:00.575Z,4.78
2022-08-25T00:45:47.657Z,5.22
2022-08-25T00:48:34.729Z,3.90
2022-08-25T00:51:30.290Z,5.05
2022-08-25T00:54:29.741Z,4.05
2022-08-25T00:57:22.148Z,3.83
2022-08-25T01:00:29.466Z,3.67
2022-08-25T01:03:19.305Z,4.95
2022-08-25T01:06:08.021Z,4.18
2022-08-25T01:08:54.996Z,3.35
2022-08-25T01:11:44.445Z,3.55
2022-08-25T01:14:32.705Z,3.10
2022-08-25T01:17:21.205Z,3.45
2022-08-25T01:20:08.736Z,5.80
2022-08-25T01:22:56.639Z,3.90
2022-08-25T01:25:48.433Z,2.70
2022-08-25T01:28:36.617Z,2.53
2022-08-25T01:31:24.467Z,2.85
2022-08-25T01:34:12.490Z,5.72
2022-08-25T01:37:01.141Z,4.22
2022-08-25T01:39:48.247Z,2.88
2022-08-25T01:42:54.064Z,3.05
2022-08-25T01:45:44.337Z,2.63
2022-08-25T01:48:32.977Z,3.72
2022-08-25T01:51:23.761Z,5.22
2022-08-25T01:54:10.884Z,5.75
2022-08-25T01:56:58.793Z,2.97
2022-08-25T01:59:46.263Z,2.90
2022-08-25T02:02:33.283Z,3.47
2022-08-25T02:05:23.488Z,5.68
2022-08-25T02:08:11.714Z,1.98
2022-08-25T02:10:58.769Z,3.67
2022-08-25T02:13:45.823Z,2.60
2022-08-25T02:16:36.552Z,5.32
2022-08-25T02:19:25.946Z,2.67
2022-08-25T02:22:13.000Z,4.45
2022-08-25T02:52:58.047Z,3.17
2022-08-25T02:55:45.263Z,3.35
2022-08-25T02:58:32.234Z,2.63
2022-08-25T03:01:19.365Z,4.30
2022-08-25T03:04:07.292Z,3.33
2022-08-25T03:06:54.213Z,3.90
2022-08-25T03:09:41.199Z,4.25
2022-08-25T03:12:28.197Z,4.00
2022-08-25T03:15:17.063Z,4.13
2022-08-25T03:18:05.499Z,5.13
2022-08-25T03:20:55.808Z,4.55
2022-08-25T03:23:43.295Z,3.22
2022-08-25T03:26:49.020Z,2.40
2022-08-25T03:29:35.943Z,3.08
2022-08-25T03:32:23.996Z,4.85
2022-08-25T03:35:11.085Z,3.17
2022-08-25T03:37:59.962Z,4.47
2022-08-25T03:40:46.986Z,3.90
2022-08-25T03:43:34.038Z,3.92
2022-08-25T03:46:27.557Z,3.05
2022-08-25T03:49:17.854Z,2.70
2022-08-25T03:52:04.852Z,3.50
2022-08-25T03:54:52.414Z,3.03
2022-08-25T03:57:39.579Z,2.83
2022-08-25T04:00:26.776Z,3.60
2022-08-25T04:03:13.747Z,4.70
2022-08-25T04:06:05.856Z,5.63
2022-08-25T04:08:52.877Z,4.30
2022-08-25T04:11:40.188Z,3.17
2022-08-25T04:14:29.692Z,4.78
2022-08-25T04:17:17.643Z,4.25
2022-08-25T04:20:05.114Z,3.15
2022-08-25T04:22:52.143Z,3.17
2022-08-25T04:25:46.290Z,2.97
2022-08-25T04:28:33.353Z,4.03
2022-08-25T04:31:22.008Z,5.85
2022-08-25T04:34:28.858Z,2.90
2022-08-25T04:37:16.187Z,4.00
2022-08-25T04:40:04.795Z,2.78
2022-08-25T04:42:51.964Z,3.10
2022-08-25T04:45:40.021Z,4.13
2022-08-25T04:48:27.067Z,3.05
2022-08-25T04:51:19.020Z,4.20
2022-08-25T04:54:08.921Z,2.60
2022-08-25T04:56:58.262Z,3.40
2022-08-25T04:59:46.020Z,4.47
2022-08-25T05:02:33.075Z,6.32
2022-08-25T05:05:20.144Z,6.45
2022-08-25T05:08:07.319Z,3.22
2022-08-25T05:10:56.692Z,2.45
2022-08-25T05:13:51.345Z,4.38
2022-08-25T05:16:39.284Z,5.45
2022-08-25T05:19:26.880Z,5.28
2022-08-25T05:22:13.850Z,4.45
2022-08-25T05:25:00.818Z,4.72
2022-08-25T05:27:47.888Z,5.13
2022-08-25T05:30:38.428Z,4.25
2022-08-25T05:33:26.020Z,3.20
2022-08-25T05:36:18.396Z,3.80
2022-08-25T05:39:05.536Z,4.78
2022-08-25T05:41:52.611Z,4.90
2022-08-25T05:44:39.554Z,7.63
2022-08-25T05:47:26.767Z,4.47
2022-08-25T05:50:13.776Z,5.68
2022-08-25T05:53:00.813Z,4.35
2022-08-25T05:55:47.807Z,4.38
2022-08-25T05:58:36.577Z,5.85
2022-08-25T06:01:47.755Z,5.82
2022-08-25T06:04:37.550Z,5.40
2022-08-25T06:07:27.995Z,5.10
2022-08-25T06:10:15.803Z,9.38
2022-08-25T06:13:03.714Z,5.30
2022-08-25T06:15:58.546Z,4.53
2022-08-25T06:18:45.881Z,10.63
2022-08-25T06:21:32.927Z,6.78
2022-08-25T06:24:21.686Z,9.63
2022-08-25T06:27:08.671Z,6.30
2022-08-25T06:29:56.085Z,4.57
2022-08-25T06:32:44.750Z,8.25
2022-08-25T06:35:31.783Z,4.55
2022-08-25T06:38:21.911Z,3.92
2022-08-25T06:41:12.777Z,7.65
2022-08-25T06:44:05.375Z,5.45
2022-08-25T06:46:52.869Z,3.40
2022-08-25T06:49:40.346Z,7.35
2022-08-25T06:52:29.212Z,8.43
2022-08-25T06:55:16.608Z,6.38
2022-08-25T06:58:05.521Z,10.18
2022-08-25T07:00:57.265Z,10.27
2022-08-25T07:03:44.558Z,7.05
2022-08-25T07:06:35.674Z,10.15
2022-08-25T07:09:22.563Z,7.35
2022-08-25T07:12:09.756Z,7.55
2022-08-25T07:15:17.125Z,8.55
2022-08-25T07:18:04.017Z,8.50
2022-08-25T07:20:53.990Z,6.00
2022-08-25T07:23:42.201Z,8.10
2022-08-25T07:26:37.784Z,5.97
2022-08-25T07:29:32.141Z,7.68
2022-08-25T07:32:19.927Z,6.03
2022-08-25T07:35:19.142Z,6.88
2022-08-25T07:38:09.096Z,5.97
2022-08-25T07:41:03.941Z,6.05
2022-08-25T07:43:51.133Z,6.57
2022-08-25T07:46:38.925Z,8.35
2022-08-25T07:49:26.795Z,8.75
2022-08-25T07:52:23.077Z,6.60
2022-08-25T07:55:11.166Z,7.68
2022-08-25T07:57:59.985Z,8.75
2022-08-25T08:00:49.429Z,7.53
2022-08-25T08:03:51.224Z,8.30
2022-08-25T08:06:39.338Z,7.10
2022-08-25T08:09:26.465Z,5.35
2022-08-25T08:12:13.517Z,5.22
2022-08-25T08:15:02.767Z,9.43
2022-08-25T08:17:49.946Z,7.40
2022-08-25T08:20:42.359Z,9.70
2022-08-25T08:23:30.579Z,6.65
2022-08-25T08:26:18.355Z,5.75
2022-08-25T08:29:05.373Z,4.43
2022-08-25T08:31:52.665Z,6.15
2022-08-25T08:34:41.624Z,7.63
2022-08-25T08:37:28.883Z,5.95
2022-08-25T08:40:19.769Z,10.75
2022-08-25T08:43:19.113Z,4.30
2022-08-25T08:46:07.602Z,5.43
2022-08-25T08:49:04.320Z,7.00
2022-08-25T08:51:59.606Z,4.30
2022-08-25T08:54:56.229Z,5.85
2022-08-25T08:57:46.456Z,4.80
2022-08-25T09:00:40.603Z,6.18
2022-08-25T09:03:34.942Z,7.63
2022-08-25T09:06:30.766Z,6.80
2022-08-25T09:09:30.695Z,5.20
2022-08-25T09:12:34.898Z,6.72
2022-08-25T09:15:58.156Z,5.15
2022-08-25T09:18:54.534Z,4.55
2022-08-25T09:22:34.903Z,6.53
2022-08-25T09:25:53.336Z,5.05
2022-08-25T09:28:55.407Z,4.90
2022-08-25T09:31:43.076Z,4.75
2022-08-25T09:34:33.852Z,3.65
2022-08-25T09:37:23.697Z,5.40
2022-08-25T09:40:12.157Z,6.15
2022-08-25T09:43:01.581Z,4.50
2022-08-25T09:46:10.832Z,6.70
2022-08-25T09:49:10.775Z,11.25
2022-08-25T09:52:26.848Z,4.55
2022-08-25T09:55:14.663Z,5.10
2022-08-25T09:58:15.612Z,4.75
2022-08-25T10:01:18.298Z,5.10
2022-08-25T10:04:17.707Z,9.15
2022-08-25T10:07:20.394Z,4.13
2022-08-25T10:10:38.291Z,9.63
2022-08-25T10:13:45.729Z,5.30
2022-08-25T10:16:36.242Z,3.58
2022-08-25T10:19:27.382Z,5.25
2022-08-25T10:22:32.562Z,8.70
2022-08-25T10:25:28.490Z,8.30
2022-08-25T10:28:29.630Z,3.42
2022-08-25T10:31:26.074Z,6.40
2022-08-25T10:34:29.119Z,7.13
2022-08-25T10:37:40.449Z,5.00
2022-08-25T10:40:57.298Z,6.38
2022-08-25T10:43:53.946Z,7.40
2022-08-25T10:47:06.794Z,4.13
2022-08-25T10:50:23.830Z,5.35
2022-08-25T10:53:22.990Z,8.57
2022-08-25T10:56:21.095Z,18.08
2022-08-25T10:59:30.689Z,9.55
2022-08-25T11:02:52.340Z,7.25
2022-08-25T11:05:57.385Z,10.65
2022-08-25T11:08:50.229Z,5.10
2022-08-25T11:11:59.241Z,5.53
2022-08-25T11:15:00.007Z,4.35
2022-08-25T11:17:55.464Z,4.18
2022-08-25T11:20:49.771Z,4.00
2022-08-25T11:23:44.223Z,3.03
2022-08-25T11:26:37.094Z,4.30
2022-08-25T11:29:31.382Z,3.13
2022-08-25T11:32:21.110Z,5.32
2022-08-25T11:35:12.110Z,4.05
2022-08-25T11:38:27.665Z,5.28
2022-08-25T11:41:38.269Z,3.92
2022-08-25T11:44:54.984Z,5.95
2022-08-25T11:48:07.628Z,7.03
2022-08-25T11:50:56.726Z,4.10
2022-08-25T11:53:44.804Z,3.30
2022-08-25T11:56:36.429Z,3.72
2022-08-25T11:59:51.860Z,4.68
2022-08-25T12:02:46.015Z,3.35
2022-08-25T12:06:13.143Z,5.63
2022-08-25T12:09:00.158Z,7.40
2022-08-25T12:11:55.526Z,5.50
2022-08-25T12:17:39.428Z,4.55
2022-08-25T12:20:54.835Z,3.05
2022-08-25T12:24:15.611Z,2.90
2022-08-25T12:27:06.747Z,6.03
2022-08-25T12:30:22.502Z,6.15
2022-08-25T12:33:33.120Z,5.55
2022-08-25T12:36:29.227Z,6.00
2022-08-25T12:39:28.624Z,3.08
2022-08-25T12:42:37.841Z,4.00
2022-08-25T12:45:38.983Z,3.38
2022-08-25T12:51:21.313Z,4.05
2022-08-25T12:54:24.247Z,3.92
2022-08-25T12:57:46.108Z,2.80
2022-08-25T13:00:48.343Z,4.38
2022-08-25T13:04:09.335Z,7.47
2022-08-25T13:07:10.878Z,3.15
2022-08-25T13:10:12.026Z,5.20
2022-08-25T13:13:13.938Z,3.53
2022-08-25T13:16:05.038Z,3.97
2022-08-25T13:18:52.463Z,3.10
2022-08-25T13:21:42.893Z,3.03
2022-08-25T13:24:40.483Z,5.18
2022-08-25T13:27:28.353Z,5.43
2022-08-25T13:30:35.994Z,2.92
2022-08-25T13:33:24.191Z,4.75
2022-08-25T13:36:35.662Z,3.90
2022-08-25T13:39:45.204Z,5.18
2022-08-25T13:42:32.886Z,5.30
2022-08-25T13:45:24.008Z,4.70
2022-08-25T13:48:20.889Z,7.53
2022-08-25T13:51:21.537Z,3.63
2022-08-25T13:54:25.482Z,2.25
2022-08-25T13:57:23.032Z,3.58
2022-08-25T14:00:12.516Z,3.15
2022-08-25T14:03:02.477Z,4.00
2022-08-25T14:06:06.527Z,3.50
2022-08-25T14:08:59.343Z,3.40
2022-08-25T14:11:55.332Z,3.60
2022-08-25T14:14:42.843Z,3.25
2022-08-25T14:17:39.761Z,2.97
2022-08-25T14:20:31.205Z,1.95
2022-08-25T14:23:22.229Z,3.97
2022-08-25T14:26:09.300Z,5.30
2022-08-25T14:28:56.588Z,2.45
2022-08-25T14:31:45.824Z,4.68
2022-08-25T14:34:36.755Z,2.38
2022-08-25T14:37:25.490Z,6.43
2022-08-25T14:40:15.620Z,4.65
2022-08-25T14:43:02.857Z,2.75
2022-08-25T14:45:51.011Z,5.00
2022-08-25T14:48:45.597Z,3.70
2022-08-25T14:51:33.752Z,3.97
2022-08-25T14:54:26.824Z,3.80
2022-08-25T14:57:14.229Z,3.78
2022-08-25T15:00:02.168Z,3.65
2022-08-25T15:02:51.620Z,2.08
2022-08-25T15:05:40.821Z,6.40
2022-08-25T15:08:46.678Z,3.20
2022-08-25T15:11:35.443Z,3.10
2022-08-25T15:14:28.922Z,3.92
2022-08-25T15:17:20.760Z,4.22
2022-08-25T15:20:08.728Z,4.07
2022-08-25T15:22:58.433Z,3.35
2022-08-25T15:25:52.993Z,2.35
2022-08-25T15:28:43.474Z,4.85
2022-08-25T15:31:31.443Z,4.30
2022-08-25T15:34:19.579Z,3.60
2022-08-25T15:37:16.655Z,4.55
2022-08-25T15:40:04.971Z,4.75
2022-08-25T15:42:54.741Z,6.60
2022-08-25T15:45:43.191Z,7.60
2022-08-25T15:48:33.701Z,8.23
2022-08-25T15:51:20.926Z,8.32
2022-08-25T15:54:07.936Z,8.35
2022-08-25T15:56:57.069Z,10.25
2022-08-25T15:59:44.130Z,9.98
2022-08-25T16:02:33.485Z,6.70
2022-08-25T16:05:25.650Z,13.52
2022-08-25T16:08:17.470Z,13.38
2022-08-25T16:14:07.582Z,13.23
2022-08-25T16:16:58.265Z,10.70
2022-08-25T16:19:47.450Z,9.95
2022-08-25T16:22:34.417Z,12.25
2022-08-25T16:25:21.836Z,13.07
2022-08-25T16:28:13.195Z,13.52
2022-08-25T16:31:00.880Z,13.25
2022-08-25T16:33:49.035Z,11.90
2022-08-25T16:36:36.955Z,22.35
2022-08-25T16:39:24.679Z,11.35
2022-08-25T16:42:12.482Z,12.52
2022-08-25T16:44:59.715Z,7.70
2022-08-25T16:47:46.883Z,8.25
2022-08-25T16:50:34.980Z,8.70
2022-08-25T16:53:40.415Z,5.35
2022-08-25T16:56:28.041Z,6.72
2022-08-25T16:59:15.045Z,8.88
2022-08-25T17:02:02.090Z,10.55
2022-08-25T17:04:49.098Z,11.80
2022-08-25T17:07:36.938Z,11.73
2022-08-25T17:10:23.956Z,7.88
2022-08-25T17:13:13.283Z,9.20
2022-08-25T17:16:03.183Z,8.20
2022-08-25T17:18:50.329Z,8.02
2022-08-25T17:21:40.647Z,7.35
2022-08-25T17:24:32.131Z,7.45
2022-08-25T17:27:21.587Z,9.35
2022-08-25T17:30:09.514Z,7.22
2022-08-25T17:32:56.796Z,10.98
2022-08-25T17:35:46.540Z,6.45
2022-08-25T17:38:34.702Z,6.05
2022-08-25T17:41:21.846Z,6.82
2022-08-25T17:44:10.975Z,6.25
2022-08-25T17:46:57.994Z,6.57
2022-08-25T17:49:45.305Z,9.70
2022-08-25T17:52:32.265Z,7.10
2022-08-25T17:55:22.988Z,8.50
2022-08-25T17:58:12.058Z,6.65
2022-08-25T18:00:59.534Z,5.57
2022-08-25T18:03:47.232Z,7.32
2022-08-25T18:06:34.397Z,7.82
2022-08-25T18:09:21.328Z,5.75
2022-08-25T18:12:08.632Z,9.60
2022-08-25T18:14:58.989Z,6.55
2022-08-25T18:17:46.827Z,5.88
2022-08-25T18:20:33.998Z,6.50
2022-08-25T18:23:22.203Z,5.82
2022-08-25T18:26:12.978Z,6.05
2022-08-25T18:29:00.290Z,5.20
2022-08-25T18:31:48.731Z,7.03
2022-08-25T18:34:36.713Z,5.78
2022-08-25T18:37:42.742Z,6.22
2022-08-25T18:40:31.539Z,5.90
2022-08-25T18:43:21.333Z,6.30
2022-08-25T18:46:09.236Z,5.25
2022-08-25T18:48:57.006Z,7.18
2022-08-25T18:51:45.228Z,5.57
2022-08-25T18:54:32.171Z,4.80
2022-08-25T18:57:23.292Z,6.50
2022-08-25T19:00:20.497Z,6.38
2022-08-25T19:03:09.064Z,4.72
2022-08-25T19:05:57.596Z,8.20
2022-08-25T19:08:45.382Z,5.68
2022-08-25T19:11:32.381Z,8.70
2022-08-25T19:14:20.264Z,5.25
2022-08-25T19:17:07.830Z,4.55
2022-08-25T19:19:55.262Z,6.28
2022-08-25T19:22:42.407Z,7.18
2022-08-25T19:25:33.177Z,7.20
2022-08-25T19:28:21.972Z,10.13
2022-08-25T19:31:09.230Z,10.70
2022-08-25T19:33:59.147Z,11.00
2022-08-25T19:36:47.351Z,6.10
2022-08-25T19:39:39.244Z,6.85
2022-08-25T19:42:36.977Z,7.57
2022-08-25T19:45:26.305Z,7.40
2022-08-25T19:48:14.021Z,5.03
2022-08-25T19:51:01.371Z,9.00
2022-08-25T19:53:53.612Z,6.68
2022-08-25T19:56:43.689Z,9.25
2022-08-25T19:59:45.500Z,7.40
2022-08-25T20:02:32.525Z,7.15
2022-08-25T20:05:23.505Z,5.60
2022-08-25T20:08:11.087Z,6.05
2022-08-25T20:10:58.508Z,7.63
2022-08-25T20:13:45.444Z,5.13
2022-08-25T20:16:37.522Z,5.97
2022-08-25T20:19:24.506Z,6.03
2022-08-25T20:22:18.142Z,6.10
2022-08-25T20:25:13.851Z,6.20
2022-08-25T20:28:03.331Z,5.32
2022-08-25T20:30:50.392Z,7.03
2022-08-25T20:33:37.658Z,8.82
2022-08-25T20:36:26.823Z,6.00
2022-08-25T20:39:14.063Z,5.53
2022-08-25T20:42:01.406Z,2.63
2022-08-25T20:44:48.702Z,5.82
2022-08-25T20:47:36.439Z,3.75
2022-08-25T20:53:13.605Z,6.10
2022-08-25T20:56:01.089Z,4.93
2022-08-25T20:58:48.699Z,4.72
2022-08-25T21:01:40.476Z,3.80
2022-08-25T21:04:32.031Z,3.83
2022-08-25T21:07:19.980Z,3.45
2022-08-25T21:10:10.238Z,3.05
2022-08-25T21:12:59.044Z,4.40
2022-08-25T21:15:48.720Z,3.33
2022-08-25T21:18:36.521Z,4.10
2022-08-25T21:21:24.255Z,5.03
2022-08-25T21:24:13.305Z,3.72
2022-08-25T21:27:00.347Z,4.00
2022-08-25T21:29:55.223Z,3.78
2022-08-25T21:32:53.233Z,4.78
2022-08-25T21:35:42.848Z,5.30
2022-08-25T21:38:30.058Z,4.45
2022-08-25T21:41:21.588Z,2.97
2022-08-25T21:44:09.720Z,3.65
2022-08-25T21:46:57.208Z,7.53
2022-08-25T21:49:44.222Z,4.03
2022-08-25T21:52:31.309Z,4.85
2022-08-25T21:55:18.713Z,6.30
2022-08-25T21:58:06.473Z,5.40
2022-08-25T22:00:53.516Z,6.35
2022-08-25T22:03:42.424Z,5.70
2022-08-25T22:06:35.622Z,6.15
2022-08-25T22:09:23.112Z,2.70
2022-08-25T22:12:10.708Z,3.30
2022-08-25T22:14:57.983Z,4.65
2022-08-25T22:17:45.732Z,4.63
2022-08-25T22:20:35.329Z,3.17
2022-08-25T22:23:28.420Z,3.08
2022-08-25T22:26:15.886Z,2.95
2022-08-25T22:29:07.960Z,2.85
2022-08-25T22:32:00.684Z,3.42
2022-08-25T22:34:49.448Z,3.25
2022-08-25T22:37:36.724Z,4.05
2022-08-25T22:40:24.354Z,2.22
2022-08-25T22:43:11.824Z,2.00
2022-08-25T22:46:03.743Z,2.30
2022-08-25T22:48:51.681Z,3.58
2022-08-25T22:51:39.507Z,3.92
2022-08-25T22:54:26.571Z,5.85
2022-08-25T22:57:13.569Z,3.92
2022-08-25T23:00:00.987Z,4.70
2022-08-25T23:02:51.045Z,2.70
2022-08-25T23:05:40.515Z,3.13
2022-08-25T23:08:39.300Z,1.38
2022-08-25T23:11:28.859Z,5.65
2022-08-25T23:14:16.011Z,2.88
2022-08-25T23:17:07.439Z,2.33
2022-08-25T23:19:54.886Z,6.55
2022-08-25T23:22:42.644Z,2.88
2022-08-25T23:25:29.727Z,2.83
2022-08-25T23:28:17.394Z,3.28
2022-08-25T23:31:11.373Z,1.60
2022-08-25T23:33:59.504Z,4.93
2022-08-25T23:36:49.779Z,2.40
2022-08-25T23:39:39.322Z,4.88
2022-08-25T23:42:26.435Z,4.45
2022-08-25T23:45:15.718Z,3.25
2022-08-25T23:50:54.135Z,3.03
2022-08-25T23:53:41.380Z,2.33
2022-08-25T23:56:28.495Z,1.45
2022-08-25T23:59:16.128Z,3.97
